Startpagina
METAR-TAF:

METAR-TAF

Vliegvelden :

Big Piney / Marbleton, Wyoming, Verenigde Staten

breedte: 42-34-44N, lengte: 110-06-11W, hoogte: 2126 m

Actueel weer

Dit bericht is 21 minuten geleden gemaakt, om 12:53 UTC
Wind 8 kt uit het noordoosten
Temperatuur 13°C
Vochtigheid 62%
Druk 1028 hPa
Zicht: 16.1 km
Onbewolkt

METAR: KBPI 171253Z AUTO 04008KT 10SM CLR 13/06 A3037 RMK AO2 SLP181 T01330061

Tijdstip: 07:14 (13:14 UTC)

Verwachting

Dit bericht is 1 uur en het 47 minuten geleden gemaakt, om 11:27 UTC
Verwachting geldig van 17 om 12 UTC tot 18 om 12 UTC
Wind 7 kt uit het noordnoordoosten
Zicht: 10 km
Verspreide wolken op 10000 ft
Gebroken wolken op 20000 ft
buien in de omgeving
Van 17 om 2000 UTC
Wind 12 kt uit het noordwesten met uitschieters tot 22 kt
Zicht: 10 km
Verspreide wolken op 9000 ft
Van 18 om 0200 UTC
Wind 7 kt uit het noordnoordwesten
Zicht: 10 km
Weinig wolken op 11000 ft

TAF: KBPI 171127Z 1712/1812 03007KT P6SM VCSH SCT100 BKN200 FM172000 31012G22KT P6SM SCT090 FM180200 34007KT P6SM FEW110

Waarnemingen en weersverwachtingen van meer dan 4000 vliegvelden (METAR en TAF).

De beschikbare stations zijn de gele en rode punten op de kaart.

Ga met uw muis naar het station om de naam te zien.

Klik dan om waarnemingen en weersverwachtingen te zien.

kaart wijzigen: klik op de groene knoppen met een zwart kruis om in te zoomen, op de groene knop met een streepje om uit te zoomen of op de groene pijlen voor aangrenzende kaarten.


METAR-TAF: